Time,TemperatureF,DewpointF,PressureIn,WindDirection,WindDirectionDegrees,WindSpeedMPH,WindSpeedGustMPH,Humidity,HourlyPrecipIn,Conditions,Clouds,dailyrainin,SoftwareType,DateUTC
2013-08-21 00:05:00,59.6,49.4,30.06,NNE,27,0.0,2.0,69,0.00,,,0.00,Wunderground v.1.15,2013-08-21 07:05:00,
2013-08-21 00:15:00,59.7,49.5,30.07,North,4,0.0,1.0,69,0.00,,,0.00,Wunderground v.1.15,2013-08-21 07:15:00,
2013-08-21 00:25:00,59.6,49.0,30.06,NNW,339,0.0,0.0,68,0.00,,,0.00,Wunderground v.1.15,2013-08-21 07:25:00,
2013-08-21 00:30:00,59.6,49.0,30.07,NW,314,0.0,0.0,68,0.00,,,0.00,Wunderground v.1.15,2013-08-21 07:30:00,
2013-08-21 00:35:00,59.6,49.0,30.07,NNE,22,0.0,4.0,68,0.00,,,0.00,Wunderground v.1.15,2013-08-21 07:35:00,
2013-08-21 00:45:00,59.4,48.8,30.07,NNE,22,0.0,4.0,68,0.00,,,0.00,Wunderground v.1.15,2013-08-21 07:45:00,
2013-08-21 00:55:00,59.1,48.9,30.07,NNE,22,0.0,4.0,69,0.00,,,0.00,Wunderground v.1.15,2013-08-21 07:55:00,
2013-08-21 01:05:00,58.7,48.9,30.07,NNE,24,0.0,0.0,70,0.00,,,0.00,Wunderground v.1.15,2013-08-21 08:05:00,
2013-08-21 01:10:00,58.5,49.1,30.07,NNE,24,0.0,0.0,71,0.00,,,0.00,Wunderground v.1.15,2013-08-21 08:10:00,
2013-08-21 01:15:00,58.3,48.9,30.07,NNE,24,0.0,0.0,71,0.00,,,0.00,Wunderground v.1.15,2013-08-21 08:15:00,
2013-08-21 01:25:00,58.0,48.6,30.06,North,351,0.0,0.0,71,0.00,,,0.00,Wunderground v.1.15,2013-08-21 08:25:00,
2013-08-21 01:35:00,57.8,48.8,30.06,NNE,20,0.0,2.0,72,0.00,,,0.00,Wunderground v.1.15,2013-08-21 08:35:00,
2013-08-21 01:45:00,57.7,48.7,30.06,North,360,0.0,2.0,72,0.00,,,0.00,Wunderground v.1.15,2013-08-21 08:45:00,
2013-08-21 01:55:00,57.6,48.3,30.06,NNE,15,0.0,2.0,71,0.00,,,0.00,Wunderground v.1.15,2013-08-21 08:55:00,
2013-08-21 02:00:00,57.6,48.3,30.06,NNE,15,0.0,1.0,71,0.00,,,0.00,Wunderground v.1.15,2013-08-21 09:00:00,
2013-08-21 02:05:00,57.5,48.5,30.06,NNE,16,0.0,1.0,72,0.00,,,0.00,Wunderground v.1.15,2013-08-21 09:05:00,
2013-08-21 02:15:00,57.3,49.1,30.06,North,6,0.0,0.0,74,0.00,,,0.00,Wunderground v.1.15,2013-08-21 09:15:00,
2013-08-21 02:25:00,57.2,49.3,30.06,NNE,17,0.0,0.0,75,0.00,,,0.00,Wunderground v.1.15,2013-08-21 09:25:00,
2013-08-21 02:35:00,57.1,49.2,30.06,NW,310,0.0,1.0,75,0.00,,,0.00,Wunderground v.1.15,2013-08-21 09:35:00,
2013-08-21 02:45:00,57.1,49.6,30.06,North,10,0.0,1.0,76,0.00,,,0.00,Wunderground v.1.15,2013-08-21 09:45:00,
2013-08-21 02:55:00,57.0,49.5,30.06,North,352,0.0,1.0,76,0.00,,,0.00,Wunderground v.1.15,2013-08-21 09:55:00,
2013-08-21 03:05:00,56.9,49.4,30.06,North,6,0.0,0.0,76,0.00,,,0.00,Wunderground v.1.15,2013-08-21 10:05:00,
2013-08-21 03:15:00,56.7,49.2,30.05,NNE,12,0.0,0.0,76,0.00,,,0.00,Wunderground v.1.15,2013-08-21 10:15:00,
2013-08-21 03:25:00,56.6,49.1,30.05,North,4,0.0,0.0,76,0.00,,,0.00,Wunderground v.1.15,2013-08-21 10:25:00,
2013-08-21 03:35:00,56.4,49.3,30.05,North,10,0.0,2.0,77,0.00,,,0.00,Wunderground v.1.15,2013-08-21 10:35:00,
2013-08-21 03:45:00,56.2,49.4,30.05,North,358,0.0,2.0,78,0.00,,,0.00,Wunderground v.1.15,2013-08-21 10:45:00,
2013-08-21 03:55:00,55.9,49.1,30.05,NW,321,0.0,2.0,78,0.00,,,0.00,Wunderground v.1.15,2013-08-21 10:55:00,
2013-08-21 04:05:00,55.8,49.4,30.04,North,2,0.0,0.0,79,0.00,,,0.00,Wunderground v.1.15,2013-08-21 11:05:00,
2013-08-21 04:15:00,55.7,49.3,30.04,North,3,0.0,0.0,79,0.00,,,0.00,Wunderground v.1.15,2013-08-21 11:15:00,
2013-08-21 04:25:00,55.5,49.4,30.04,North,1,0.0,0.0,80,0.00,,,0.00,Wunderground v.1.15,2013-08-21 11:25:00,
2013-08-21 04:35:00,55.2,49.1,30.04,North,3,0.0,1.0,80,0.00,,,0.00,Wunderground v.1.15,2013-08-21 11:35:00,
2013-08-21 04:45:00,54.8,49.1,30.05,North,3,0.0,1.0,81,0.00,,,0.00,Wunderground v.1.15,2013-08-21 11:45:00,
2013-08-21 04:55:00,54.6,49.2,30.04,North,351,0.0,1.0,82,0.00,,,0.00,Wunderground v.1.15,2013-08-21 11:55:00,
2013-08-21 05:00:00,54.5,49.4,30.04,North,356,0.0,0.0,83,0.00,,,0.00,Wunderground v.1.15,2013-08-21 12:00:00,
2013-08-21 05:10:00,54.4,49.3,30.04,North,358,0.0,0.0,83,0.00,,,0.00,Wunderground v.1.15,2013-08-21 12:10:00,
2013-08-21 05:15:00,54.4,49.3,30.04,NW,314,0.0,0.0,83,0.00,,,0.00,Wunderground v.1.15,2013-08-21 12:15:00,
2013-08-21 05:25:00,54.4,49.0,30.04,North,4,0.0,0.0,82,0.00,,,0.00,Wunderground v.1.15,2013-08-21 12:25:00,
2013-08-21 05:35:00,54.4,49.0,30.05,North,4,0.0,1.0,82,0.00,,,0.00,Wunderground v.1.15,2013-08-21 12:35:00,
2013-08-21 05:40:00,54.5,49.1,30.05,North,360,0.0,1.0,82,0.00,,,0.00,Wunderground v.1.15,2013-08-21 12:40:00,
2013-08-21 05:45:00,54.4,48.7,30.05,NNW,331,0.0,1.0,81,0.00,,,0.00,Wunderground v.1.15,2013-08-21 12:45:00,
2013-08-21 05:55:00,54.4,48.7,30.04,NNW,348,0.0,1.0,81,0.00,,,0.00,Wunderground v.1.15,2013-08-21 12:55:00,
2013-08-21 06:05:00,54.4,48.7,30.04,NW,311,0.0,0.0,81,0.00,,,0.00,Wunderground v.1.15,2013-08-21 13:05:00,
2013-08-21 06:15:00,54.5,49.1,30.05,NNW,333,0.0,0.0,82,0.00,,,0.00,Wunderground v.1.15,2013-08-21 13:15:00,
2013-08-21 06:25:00,54.4,49.0,30.05,NNW,328,0.0,0.0,82,0.00,,,0.00,Wunderground v.1.15,2013-08-21 13:25:00,
2013-08-21 06:35:00,54.4,49.0,30.05,NNW,328,0.0,1.0,82,0.00,,,0.00,Wunderground v.1.15,2013-08-21 13:35:00,
2013-08-21 06:45:00,54.9,49.5,30.06,NNW,328,0.0,1.0,82,0.00,,,0.00,Wunderground v.1.15,2013-08-21 13:45:00,
2013-08-21 06:55:00,56.0,49.9,30.06,North,358,0.0,1.0,80,0.00,,,0.00,Wunderground v.1.15,2013-08-21 13:55:00,
2013-08-21 07:05:00,57.2,50.4,30.06,North,6,0.0,0.0,78,0.00,,,0.00,Wunderground v.1.15,2013-08-21 14:05:00,
2013-08-21 07:15:00,58.8,50.9,30.06,NNW,340,0.0,0.0,75,0.00,,,0.00,Wunderground v.1.15,2013-08-21 14:15:00,
2013-08-21 07:25:00,60.2,51.1,30.06,NNE,13,0.0,0.0,72,0.00,,,0.00,Wunderground v.1.15,2013-08-21 14:25:00,
2013-08-21 07:35:00,62.0,51.7,30.06,NNE,22,0.0,1.0,69,0.00,,,0.00,Wunderground v.1.15,2013-08-21 14:35:00,
2013-08-21 07:45:00,63.2,51.6,30.06,NNE,20,0.0,1.0,66,0.00,,,0.00,Wunderground v.1.15,2013-08-21 14:45:00,
2013-08-21 07:55:00,65.1,52.2,30.06,NNW,343,0.0,1.0,63,0.00,,,0.00,Wunderground v.1.15,2013-08-21 14:55:00,
2013-08-21 08:05:00,66.3,52.4,30.05,NNW,333,0.0,0.0,61,0.00,,,0.00,Wunderground v.1.15,2013-08-21 15:05:00,
2013-08-21 08:15:00,67.7,51.9,30.05,NNE,12,0.0,1.0,57,0.00,,,0.00,Wunderground v.1.15,2013-08-21 15:15:00,
2013-08-21 08:25:00,68.1,51.3,30.05,North,360,1.0,2.0,55,0.00,,,0.00,Wunderground v.1.15,2013-08-21 15:25:00,
2013-08-21 08:30:00,67.8,51.0,30.05,North,4,2.0,2.0,55,0.00,,,0.00,Wunderground v.1.15,2013-08-21 15:30:00,
2013-08-21 08:35:00,67.9,51.6,30.05,North,11,1.0,3.0,56,0.00,,,0.00,Wunderground v.1.15,2013-08-21 15:35:00,
2013-08-21 08:45:00,68.7,51.9,30.06,NNW,347,1.0,1.0,55,0.00,,,0.00,Wunderground v.1.15,2013-08-21 15:45:00,
2013-08-21 08:50:00,69.4,52.5,30.05,NW,319,1.0,1.0,55,0.00,,,0.00,Wunderground v.1.15,2013-08-21 15:50:00,
2013-08-21 08:55:00,70.4,52.4,30.05,North,351,1.0,1.0,53,0.00,,,0.00,Wunderground v.1.15,2013-08-21 15:55:00,
2013-08-21 09:05:00,70.9,52.9,30.05,WNW,297,1.0,1.0,53,0.00,,,0.00,Wunderground v.1.15,2013-08-21 16:05:00,
2013-08-21 09:15:00,71.6,53.0,30.05,NNE,18,1.0,8.0,52,0.00,,,0.00,Wunderground v.1.15,2013-08-21 16:15:00,
2013-08-21 09:25:00,71.8,53.2,30.05,NNE,24,1.0,2.0,52,0.00,,,0.00,Wunderground v.1.15,2013-08-21 16:25:00,
2013-08-21 09:35:00,72.0,53.4,30.05,NNW,333,2.0,3.0,52,0.00,,,0.00,Wunderground v.1.15,2013-08-21 16:35:00,
2013-08-21 09:40:00,72.5,53.3,30.05,NW,324,2.0,8.0,51,0.00,,,0.00,Wunderground v.1.15,2013-08-21 16:40:00,
2013-08-21 09:45:00,73.0,53.3,30.05,NNE,33,2.0,8.0,50,0.00,,,0.00,Wunderground v.1.15,2013-08-21 16:45:00,
2013-08-21 09:55:00,73.9,53.5,30.05,NW,305,2.0,4.0,49,0.00,,,0.00,Wunderground v.1.15,2013-08-21 16:55:00,
2013-08-21 10:05:00,74.4,53.4,30.05,North,352,2.0,5.0,48,0.00,,,0.00,Wunderground v.1.15,2013-08-21 17:05:00,
2013-08-21 10:15:00,74.7,53.1,30.05,NW,308,1.0,6.0,47,0.00,,,0.00,Wunderground v.1.15,2013-08-21 17:15:00,
2013-08-21 10:25:00,76.1,53.8,30.05,NW,307,2.0,2.0,46,0.00,,,0.00,Wunderground v.1.15,2013-08-21 17:25:00,
2013-08-21 10:35:00,76.6,53.7,30.05,NE,43,2.0,8.0,45,0.00,,,0.00,Wunderground v.1.15,2013-08-21 17:35:00,
2013-08-21 10:45:00,76.9,53.9,30.04,NNW,333,1.0,8.0,45,0.00,,,0.00,Wunderground v.1.15,2013-08-21 17:45:00,
2013-08-21 10:55:00,76.9,53.3,30.04,NW,310,2.0,8.0,44,0.00,,,0.00,Wunderground v.1.15,2013-08-21 17:55:00,
2013-08-21 11:00:00,76.8,52.6,30.04,WNW,301,2.0,2.0,43,0.00,,,0.00,Wunderground v.1.15,2013-08-21 18:00:00,
2013-08-21 11:05:00,76.6,53.1,30.04,NW,311,3.0,3.0,44,0.00,,,0.00,Wunderground v.1.15,2013-08-21 18:05:00,
2013-08-21 11:15:00,76.9,52.7,30.04,NW,315,2.0,4.0,43,0.00,,,0.00,Wunderground v.1.15,2013-08-21 18:15:00,
2013-08-21 11:25:00,76.5,53.0,30.03,NNW,337,3.0,4.0,44,0.00,,,0.00,Wunderground v.1.15,2013-08-21 18:25:00,
2013-08-21 11:35:00,76.8,53.2,30.03,North,9,2.0,10.0,44,0.00,,,0.00,Wunderground v.1.15,2013-08-21 18:35:00,
2013-08-21 11:40:00,77.0,53.4,30.03,NNE,25,2.0,10.0,44,0.00,,,0.00,Wunderground v.1.15,2013-08-21 18:40:00,
2013-08-21 11:45:00,77.0,53.4,30.03,NNE,26,2.0,10.0,44,0.00,,,0.00,Wunderground v.1.15,2013-08-21 18:45:00,
2013-08-21 11:55:00,78.1,53.8,30.03,NNE,27,1.0,10.0,43,0.00,,,0.00,Wunderground v.1.15,2013-08-21 18:55:00,
2013-08-21 12:00:00,78.0,53.7,30.03,North,2,1.0,3.0,43,0.00,,,0.00,Wunderground v.1.15,2013-08-21 19:00:00,
2013-08-21 12:05:00,77.8,53.5,30.03,North,1,2.0,3.0,43,0.00,,,0.00,Wunderground v.1.15,2013-08-21 19:05:00,
2013-08-21 12:15:00,76.9,53.3,30.02,NW,320,3.0,5.0,44,0.00,,,0.00,Wunderground v.1.15,2013-08-21 19:15:00,
2013-08-21 12:20:00,76.0,53.7,30.02,North,8,5.0,5.0,46,0.00,,,0.00,Wunderground v.1.15,2013-08-21 19:20:00,
2013-08-21 12:25:00,76.2,53.9,30.02,North,351,4.0,5.0,46,0.00,,,0.00,Wunderground v.1.15,2013-08-21 19:25:00,
2013-08-21 12:35:00,76.4,54.1,30.02,NNE,17,3.0,11.0,46,0.00,,,0.00,Wunderground v.1.15,2013-08-21 19:35:00,
2013-08-21 12:45:00,76.7,54.4,30.01,ENE,59,3.0,11.0,46,0.00,,,0.00,Wunderground v.1.15,2013-08-21 19:45:00,
2013-08-21 12:55:00,77.5,54.5,30.01,NNW,342,3.0,11.0,45,0.00,,,0.00,Wunderground v.1.15,2013-08-21 19:55:00,
2013-08-21 13:05:00,77.7,55.3,30.01,NNW,336,2.0,3.0,46,0.00,,,0.00,Wunderground v.1.15,2013-08-21 20:05:00,
2013-08-21 13:15:00,77.6,55.2,30.00,NNW,332,2.0,5.0,46,0.00,,,0.00,Wunderground v.1.15,2013-08-21 20:15:00,
2013-08-21 13:25:00,77.0,54.6,30.01,NNW,332,3.0,5.0,46,0.00,,,0.00,Wunderground v.1.15,2013-08-21 20:25:00,
2013-08-21 13:35:00,76.4,55.3,30.00,NW,310,4.0,13.0,48,0.00,,,0.00,Wunderground v.1.15,2013-08-21 20:35:00,
2013-08-21 13:45:00,79.4,55.6,30.00,North,355,2.0,13.0,44,0.00,,,0.00,Wunderground v.1.15,2013-08-21 20:45:00,
2013-08-21 13:55:00,78.8,55.0,30.00,North,355,3.0,13.0,44,0.00,,,0.00,Wunderground v.1.15,2013-08-21 20:55:00,
2013-08-21 14:05:00,79.6,55.1,29.99,NW,315,3.0,6.0,43,0.00,,,0.00,Wunderground v.1.15,2013-08-21 21:05:00,
2013-08-21 14:15:00,81.4,55.4,29.99,NNW,337,2.0,3.0,41,0.00,,,0.00,Wunderground v.1.15,2013-08-21 21:15:00,
2013-08-21 14:25:00,82.9,55.4,29.99,NNE,12,1.0,4.0,39,0.00,,,0.00,Wunderground v.1.15,2013-08-21 21:25:00,
2013-08-21 14:35:00,82.5,55.7,29.99,NNW,346,2.0,11.0,40,0.00,,,0.00,Wunderground v.1.15,2013-08-21 21:35:00,
2013-08-21 14:45:00,82.7,55.9,29.98,NNE,22,2.0,11.0,40,0.00,,,0.00,Wunderground v.1.15,2013-08-21 21:45:00,
2013-08-21 14:55:00,82.6,55.8,29.98,NNW,344,1.0,11.0,40,0.00,,,0.00,Wunderground v.1.15,2013-08-21 21:55:00,
2013-08-21 15:00:00,83.3,55.8,29.98,NW,310,2.0,6.0,39,0.00,,,0.00,Wunderground v.1.15,2013-08-21 22:00:00,
2013-08-21 15:05:00,83.3,55.8,29.98,North,351,2.0,6.0,39,0.00,,,0.00,Wunderground v.1.15,2013-08-21 22:05:00,
2013-08-21 15:15:00,84.2,55.8,29.97,North,357,1.0,2.0,38,0.00,,,0.00,Wunderground v.1.15,2013-08-21 22:15:00,
2013-08-21 15:25:00,83.2,55.7,29.97,North,5,2.0,2.0,39,0.00,,,0.00,Wunderground v.1.15,2013-08-21 22:25:00,
2013-08-21 15:35:00,80.9,54.3,29.96,NNW,337,3.0,4.0,40,0.00,,,0.00,Wunderground v.1.15,2013-08-21 22:35:00,
2013-08-21 15:40:00,80.7,54.8,29.96,North,357,3.0,3.0,41,0.00,,,0.00,Wunderground v.1.15,2013-08-21 22:40:00,
2013-08-21 15:45:00,80.9,55.0,29.96,North,4,2.0,12.0,41,0.00,,,0.00,Wunderground v.1.15,2013-08-21 22:45:00,
2013-08-21 15:55:00,81.3,55.3,29.96,NE,52,2.0,12.0,41,0.00,,,0.00,Wunderground v.1.15,2013-08-21 22:55:00,
2013-08-21 16:05:00,82.1,56.1,29.96,NNW,342,1.0,2.0,41,0.00,,,0.00,Wunderground v.1.15,2013-08-21 23:05:00,
2013-08-21 16:15:00,81.4,55.4,29.95,WNW,301,2.0,2.0,41,0.00,,,0.00,Wunderground v.1.15,2013-08-21 23:15:00,
2013-08-21 16:25:00,81.7,55.7,29.95,North,9,1.0,2.0,41,0.00,,,0.00,Wunderground v.1.15,2013-08-21 23:25:00,
2013-08-21 16:35:00,80.7,56.1,29.94,NW,314,3.0,9.0,43,0.00,,,0.00,Wunderground v.1.15,2013-08-21 23:35:00,
2013-08-21 16:45:00,80.1,55.6,29.94,WNW,291,3.0,12.0,43,0.00,,,0.00,Wunderground v.1.15,2013-08-21 23:45:00,
2013-08-21 16:55:00,80.2,55.7,29.93,WNW,299,2.0,3.0,43,0.00,,,0.00,Wunderground v.1.15,2013-08-21 23:55:00,
2013-08-21 17:00:00,79.8,55.3,29.93,NNE,25,2.0,2.0,43,0.00,,,0.00,Wunderground v.1.15,2013-08-22 00:00:00,
2013-08-21 17:10:00,79.0,55.2,29.93,NNE,14,2.0,4.0,44,0.00,,,0.00,Wunderground v.1.15,2013-08-22 00:10:00,
2013-08-21 17:15:00,78.5,55.4,29.93,NNW,339,2.0,4.0,45,0.00,,,0.00,Wunderground v.1.15,2013-08-22 00:15:00,
2013-08-21 17:25:00,76.7,54.4,29.93,NW,316,2.0,3.0,46,0.00,,,0.00,Wunderground v.1.15,2013-08-22 00:25:00,
2013-08-21 17:35:00,75.6,53.4,29.92,NNE,24,2.0,12.0,46,0.00,,,0.00,Wunderground v.1.15,2013-08-22 00:35:00,
2013-08-21 17:45:00,75.0,53.4,29.93,North,4,1.0,12.0,47,0.00,,,0.00,Wunderground v.1.15,2013-08-22 00:45:00,
2013-08-21 17:55:00,74.7,53.7,29.93,NNE,18,2.0,12.0,48,0.00,,,0.00,Wunderground v.1.15,2013-08-22 00:55:00,
2013-08-21 18:00:00,74.5,53.5,29.92,North,9,2.0,2.0,48,0.00,,,0.00,Wunderground v.1.15,2013-08-22 01:00:00,
2013-08-21 18:05:00,74.5,54.1,29.92,North,5,1.0,2.0,49,0.00,,,0.00,Wunderground v.1.15,2013-08-22 01:05:00,
2013-08-21 18:15:00,74.2,53.8,29.92,North,3,2.0,2.0,49,0.00,,,0.00,Wunderground v.1.15,2013-08-22 01:15:00,
2013-08-21 18:25:00,73.9,54.1,29.92,NW,322,1.0,2.0,50,0.00,,,0.00,Wunderground v.1.15,2013-08-22 01:25:00,
2013-08-21 18:35:00,73.7,53.9,29.92,NE,39,1.0,10.0,50,0.00,,,0.00,Wunderground v.1.15,2013-08-22 01:35:00,
2013-08-21 18:45:00,73.3,54.6,29.91,North,4,1.0,10.0,52,0.00,,,0.00,Wunderground v.1.15,2013-08-22 01:45:00,
2013-08-21 18:55:00,72.9,54.2,29.91,North,349,2.0,10.0,52,0.00,,,0.00,Wunderground v.1.15,2013-08-22 01:55:00,
2013-08-21 19:05:00,72.5,54.4,29.91,WNW,299,1.0,4.0,53,0.00,,,0.00,Wunderground v.1.15,2013-08-22 02:05:00,
2013-08-21 19:15:00,72.1,54.0,29.91,NNE,24,1.0,3.0,53,0.00,,,0.00,Wunderground v.1.15,2013-08-22 02:15:00,
2013-08-21 19:25:00,71.9,53.8,29.91,NNW,338,1.0,2.0,53,0.00,,,0.00,Wunderground v.1.15,2013-08-22 02:25:00,
2013-08-21 19:35:00,71.7,53.7,29.91,WNW,292,1.0,10.0,53,0.00,,,0.00,Wunderground v.1.15,2013-08-22 02:35:00,
2013-08-21 19:45:00,71.5,54.0,29.91,North,352,1.0,2.0,54,0.00,,,0.00,Wunderground v.1.15,2013-08-22 02:45:00,
2013-08-21 19:55:00,71.2,54.2,29.91,NNE,14,0.0,10.0,55,0.00,,,0.00,Wunderground v.1.15,2013-08-22 02:55:00,
2013-08-21 20:05:00,70.8,53.8,29.91,NNW,337,0.0,0.0,55,0.00,,,0.00,Wunderground v.1.15,2013-08-22 03:05:00,
2013-08-21 20:15:00,70.5,54.0,29.91,NW,317,0.0,1.0,56,0.00,,,0.00,Wunderground v.1.15,2013-08-22 03:15:00,
2013-08-21 20:25:00,70.2,53.8,29.92,North,353,0.0,0.0,56,0.00,,,0.00,Wunderground v.1.15,2013-08-22 03:25:00,
2013-08-21 20:35:00,69.8,53.9,29.92,NW,317,0.0,8.0,57,0.00,,,0.00,Wunderground v.1.15,2013-08-22 03:35:00,
2013-08-21 20:45:00,69.5,53.6,29.91,NW,309,0.0,8.0,57,0.00,,,0.00,Wunderground v.1.15,2013-08-22 03:45:00,
2013-08-21 20:50:00,69.3,53.4,29.92,NNE,16,0.0,8.0,57,0.00,,,0.00,Wunderground v.1.15,2013-08-22 03:50:00,
2013-08-21 20:55:00,69.2,53.3,29.91,NNE,22,0.0,8.0,57,0.00,,,0.00,Wunderground v.1.15,2013-08-22 03:55:00,
2013-08-21 21:05:00,68.9,53.5,29.92,NNE,16,0.0,0.0,58,0.00,,,0.00,Wunderground v.1.15,2013-08-22 04:05:00,
2013-08-21 21:10:00,68.7,53.3,29.92,NNE,16,0.0,0.0,58,0.00,,,0.00,Wunderground v.1.15,2013-08-22 04:10:00,
2013-08-21 21:15:00,68.5,53.6,29.92,NNE,16,0.0,0.0,59,0.00,,,0.00,Wunderground v.1.15,2013-08-22 04:15:00,
2013-08-21 21:25:00,68.0,53.1,29.92,NNE,16,0.0,0.0,59,0.00,,,0.00,Wunderground v.1.15,2013-08-22 04:25:00,
2013-08-21 21:30:00,67.7,52.9,29.92,North,352,0.0,0.0,59,0.00,,,0.00,Wunderground v.1.15,2013-08-22 04:30:00,
2013-08-21 21:35:00,67.6,52.8,29.92,North,352,0.0,3.0,59,0.00,,,0.00,Wunderground v.1.15,2013-08-22 04:35:00,
2013-08-21 21:45:00,67.4,53.5,29.93,North,352,0.0,3.0,61,0.00,,,0.00,Wunderground v.1.15,2013-08-22 04:45:00,
2013-08-21 21:50:00,67.1,53.2,29.93,North,352,0.0,3.0,61,0.00,,,0.00,Wunderground v.1.15,2013-08-22 04:50:00,
2013-08-21 21:55:00,67.0,53.5,29.93,North,352,0.0,3.0,62,0.00,,,0.00,Wunderground v.1.15,2013-08-22 04:55:00,
2013-08-21 22:05:00,66.9,53.0,29.93,NW,314,0.0,0.0,61,0.00,,,0.00,Wunderground v.1.15,2013-08-22 05:05:00,
2013-08-21 22:15:00,67.0,52.2,29.92,North,2,0.0,0.0,59,0.00,,,0.00,Wunderground v.1.15,2013-08-22 05:15:00,
2013-08-21 22:25:00,66.8,52.5,29.92,North,355,0.0,0.0,60,0.00,,,0.00,Wunderground v.1.15,2013-08-22 05:25:00,
2013-08-21 22:30:00,66.7,52.4,29.92,NW,306,0.0,0.0,60,0.00,,,0.00,Wunderground v.1.15,2013-08-22 05:30:00,
2013-08-21 22:35:00,66.7,52.4,29.92,North,4,0.0,1.0,60,0.00,,,0.00,Wunderground v.1.15,2013-08-22 05:35:00,
2013-08-21 22:45:00,66.7,52.4,29.92,North,356,0.0,1.0,60,0.00,,,0.00,Wunderground v.1.15,2013-08-22 05:45:00,
2013-08-21 22:50:00,66.6,52.3,29.92,North,8,0.0,1.0,60,0.00,,,0.00,Wunderground v.1.15,2013-08-22 05:50:00,
2013-08-21 22:55:00,66.5,52.2,29.92,North,350,0.0,1.0,60,0.00,,,0.00,Wunderground v.1.15,2013-08-22 05:55:00,
2013-08-21 23:05:00,66.4,52.1,29.92,NNE,19,0.0,0.0,60,0.00,,,0.00,Wunderground v.1.15,2013-08-22 06:05:00,
2013-08-21 23:15:00,66.0,51.7,29.92,NNE,19,0.0,0.0,60,0.00,,,0.00,Wunderground v.1.15,2013-08-22 06:15:00,
2013-08-21 23:25:00,65.6,51.8,29.93,NNE,19,0.0,0.0,61,0.00,,,0.00,Wunderground v.1.15,2013-08-22 06:25:00,
2013-08-21 23:35:00,65.1,51.8,29.93,North,358,0.0,2.0,62,0.00,,,0.00,Wunderground v.1.15,2013-08-22 06:35:00,
2013-08-21 23:45:00,64.9,51.6,29.92,NW,316,0.0,2.0,62,0.00,,,0.00,Wunderground v.1.15,2013-08-22 06:45:00,
2013-08-21 23:55:00,64.5,52.0,29.92,NW,316,0.0,2.0,64,0.00,,,0.00,Wunderground v.1.15,2013-08-22 06:55:00,